Current Weather

New York Stewart Intl

New York, New York (KSWF)

Report from: Friday, February 23, 2024 1:45 PM EST
Current time: Friday, February 23, 2024 2:33 PM EST

Nearby weather – Weather history – Daily summaries
Weather forecast

Temperature8.0°C (46.4°F)
Dew point4.0°C (39.2°F)
Winds Calm
Visibility10 mi. (16.1 km)
Clouds Ceiling: Broken clouds 800 ft. (244 m)
Overcast 1,300 ft. (396 m)
Altimeter29.46 in.Hg (998 mB)
Relative humidity76 %
Density altitude-187 ft. (-57 m)
Flight conditions Instrument Meteorological Conditions
Raw dataKSWF 231845Z 00000KT 10SM BKN008 OVC013 08/04 A2946
An error has occurred. This application may no longer respond until reloaded. Reload 🗙